createdAt,value
2023-02-21T00:00:10.019Z,7.37
2023-02-21T00:03:19.153Z,7.40
2023-02-21T00:06:05.882Z,7.41
2023-02-21T00:08:53.288Z,7.44
2023-02-21T00:11:40.444Z,7.45
2023-02-21T00:14:27.621Z,7.49
2023-02-21T00:17:14.991Z,7.48
2023-02-21T00:20:02.273Z,7.55
2023-02-21T00:22:49.600Z,7.58
2023-02-21T00:25:36.920Z,7.60
2023-02-21T00:28:23.950Z,7.60
2023-02-21T00:31:11.001Z,7.65
2023-02-21T00:33:58.265Z,7.69
2023-02-21T00:36:45.431Z,7.71
2023-02-21T00:39:32.709Z,7.75
2023-02-21T00:42:19.867Z,7.78
2023-02-21T00:45:06.969Z,7.82
2023-02-21T00:47:54.324Z,7.84
2023-02-21T00:50:41.331Z,7.86
2023-02-21T00:53:28.704Z,7.89
2023-02-21T00:56:16.000Z,7.91
2023-02-21T00:59:02.737Z,7.93
2023-02-21T01:01:50.565Z,7.96
2023-02-21T01:04:37.696Z,7.96
2023-02-21T01:07:24.709Z,7.97
2023-02-21T01:10:12.025Z,7.99
2023-02-21T01:12:59.349Z,8.01
2023-02-21T01:15:46.029Z,8.01
2023-02-21T01:18:33.722Z,8.00
2023-02-21T01:21:23.321Z,7.99
2023-02-21T01:24:10.391Z,8.02
2023-02-21T01:26:58.084Z,8.04
2023-02-21T01:29:45.333Z,8.06
2023-02-21T01:32:32.603Z,8.08
2023-02-21T01:35:19.605Z,8.10
2023-02-21T01:38:06.689Z,8.12
2023-02-21T01:40:54.140Z,8.14
2023-02-21T01:43:44.096Z,8.16
2023-02-21T01:46:39.001Z,8.14
2023-02-21T01:49:36.451Z,8.17
2023-02-21T01:52:24.910Z,8.22
2023-02-21T01:55:14.173Z,8.26
2023-02-21T01:58:04.806Z,8.28
2023-02-21T02:00:52.615Z,8.30
2023-02-21T02:03:41.265Z,8.30
2023-02-21T02:06:33.403Z,8.30
2023-02-21T02:09:41.508Z,8.31
2023-02-21T02:12:37.430Z,8.33
2023-02-21T02:15:37.708Z,8.33
2023-02-21T02:18:07.466Z,8.35
2023-02-21T02:20:57.450Z,8.35
2023-02-21T02:24:05.961Z,8.36
2023-02-21T02:27:21.527Z,8.36
2023-02-21T02:30:26.760Z,8.36
2023-02-21T02:33:30.627Z,8.38
2023-02-21T02:36:10.455Z,8.38
2023-02-21T02:39:22.866Z,8.39
2023-02-21T02:42:28.931Z,8.41
2023-02-21T02:45:06.121Z,8.42
2023-02-21T02:47:42.815Z,8.44
2023-02-21T02:50:13.146Z,8.45
2023-02-21T02:52:54.089Z,8.45
2023-02-21T02:55:40.490Z,8.48
2023-02-21T02:58:12.966Z,8.51
2023-02-21T03:00:50.448Z,8.52
2023-02-21T03:03:56.941Z,8.55
2023-02-21T03:06:37.479Z,8.58
2023-02-21T03:09:24.085Z,8.59
2023-02-21T03:12:19.825Z,8.60
2023-02-21T03:15:15.828Z,8.60
2023-02-21T03:18:01.417Z,8.60
2023-02-21T03:20:30.407Z,8.59
2023-02-21T03:23:03.090Z,8.60
2023-02-21T03:25:34.750Z,8.61
2023-02-21T03:28:04.966Z,8.59
2023-02-21T03:30:44.629Z,8.59
2023-02-21T03:33:13.189Z,8.57
2023-02-21T03:35:42.082Z,8.57
2023-02-21T03:38:11.382Z,8.56
2023-02-21T03:40:40.170Z,8.54
2023-02-21T03:43:08.762Z,8.53
2023-02-21T03:45:44.398Z,8.53
2023-02-21T03:48:26.177Z,8.51
2023-02-21T03:51:01.228Z,8.51
2023-02-21T03:53:33.305Z,8.50
2023-02-21T03:56:02.492Z,8.51
2023-02-21T03:58:38.470Z,8.49
2023-02-21T04:01:07.417Z,8.51
2023-02-21T04:03:36.230Z,8.50
2023-02-21T04:06:06.652Z,8.51
2023-02-21T04:08:35.549Z,8.50
2023-02-21T04:11:04.333Z,8.47
2023-02-21T04:13:35.888Z,8.45
2023-02-21T04:16:05.532Z,8.44
2023-02-21T04:18:37.744Z,8.41
2023-02-21T04:21:07.881Z,8.39
2023-02-21T04:23:36.874Z,8.39
2023-02-21T04:26:06.485Z,8.39
2023-02-21T04:28:46.732Z,8.40
2023-02-21T04:31:17.653Z,8.39
2023-02-21T04:33:46.625Z,8.40
2023-02-21T04:36:20.305Z,8.40
2023-02-21T04:38:50.614Z,8.42
2023-02-21T04:41:19.779Z,8.43
2023-02-21T04:43:48.377Z,8.44
2023-02-21T04:46:19.440Z,8.45
2023-02-21T04:48:51.397Z,8.45
2023-02-21T04:51:24.099Z,8.48
2023-02-21T04:53:54.243Z,8.47
2023-02-21T04:56:26.267Z,8.42
2023-02-21T04:58:55.164Z,8.50
2023-02-21T05:01:28.529Z,8.52
2023-02-21T05:03:58.628Z,8.53
2023-02-21T05:06:30.047Z,8.54
2023-02-21T05:08:59.916Z,8.51
2023-02-21T05:11:28.494Z,8.56
2023-02-21T05:13:56.892Z,8.56
2023-02-21T05:16:25.971Z,8.58
2023-02-21T05:18:54.629Z,8.58
2023-02-21T05:21:24.245Z,8.62
2023-02-21T05:23:59.117Z,8.62
2023-02-21T05:26:31.658Z,8.66
2023-02-21T05:29:00.160Z,8.69
2023-02-21T05:31:29.741Z,8.70
2023-02-21T05:33:58.688Z,8.69
2023-02-21T05:36:27.253Z,8.72
2023-02-21T05:38:56.571Z,8.73
2023-02-21T05:41:25.252Z,8.73
2023-02-21T05:43:54.434Z,8.75
2023-02-21T05:46:30.030Z,8.72
2023-02-21T05:49:00.606Z,8.76
2023-02-21T05:51:38.541Z,8.79
2023-02-21T05:54:10.061Z,8.80
2023-02-21T05:56:40.564Z,8.83
2023-02-21T05:59:10.479Z,8.83
2023-02-21T06:01:39.022Z,8.85
2023-02-21T06:04:10.456Z,8.88
2023-02-21T06:06:51.833Z,8.94
2023-02-21T06:09:20.809Z,8.97
2023-02-21T06:11:49.241Z,9.01
2023-02-21T06:14:20.851Z,9.03
2023-02-21T06:16:49.309Z,9.04
2023-02-21T06:19:19.027Z,9.06
2023-02-21T06:21:47.698Z,9.10
2023-02-21T06:24:16.152Z,9.12
2023-02-21T06:26:45.115Z,9.14
2023-02-21T06:29:13.780Z,9.17
2023-02-21T06:31:42.525Z,9.18
2023-02-21T06:34:11.501Z,9.18
2023-02-21T06:36:40.171Z,9.23
2023-02-21T06:39:10.976Z,9.25
2023-02-21T06:41:39.491Z,9.29
2023-02-21T06:44:07.932Z,9.26
2023-02-21T06:46:38.210Z,9.34
2023-02-21T06:49:07.119Z,9.37
2023-02-21T06:51:39.786Z,9.38
2023-02-21T06:54:08.265Z,9.45
2023-02-21T06:56:37.176Z,9.46
2023-02-21T06:59:05.740Z,9.52
2023-02-21T07:01:34.357Z,9.58
2023-02-21T07:04:03.025Z,9.62
2023-02-21T07:06:33.750Z,9.65
2023-02-21T07:09:02.562Z,9.63
2023-02-21T07:11:36.174Z,9.73
2023-02-21T07:14:05.091Z,9.79
2023-02-21T07:16:34.277Z,9.85
2023-02-21T07:19:02.828Z,9.90
2023-02-21T07:21:32.095Z,9.98
2023-02-21T07:24:00.876Z,10.06
2023-02-21T07:26:29.464Z,10.13
2023-02-21T07:28:57.959Z,10.19
2023-02-21T07:31:27.351Z,10.22
2023-02-21T07:33:56.294Z,10.23
2023-02-21T07:36:25.008Z,10.29
2023-02-21T07:38:53.522Z,10.35
2023-02-21T07:41:22.343Z,10.42
2023-02-21T07:43:51.390Z,10.45
2023-02-21T07:46:20.181Z,10.50
2023-02-21T07:48:48.889Z,10.57
2023-02-21T07:51:23.385Z,10.64
2023-02-21T07:53:51.861Z,10.70
2023-02-21T07:56:20.408Z,10.85
2023-02-21T07:58:49.066Z,10.92
2023-02-21T08:01:17.684Z,11.02
2023-02-21T08:03:46.215Z,11.10
2023-02-21T08:06:15.174Z,11.19
2023-02-21T08:08:44.381Z,11.24
2023-02-21T08:11:13.111Z,11.28
2023-02-21T08:13:41.788Z,11.40
2023-02-21T08:16:10.471Z,11.47
2023-02-21T08:18:39.018Z,11.56
2023-02-21T08:21:11.069Z,11.61
2023-02-21T08:23:39.866Z,11.73
2023-02-21T08:26:08.682Z,11.90
2023-02-21T08:28:37.604Z,12.10
2023-02-21T08:31:07.412Z,12.18
2023-02-21T08:33:36.002Z,12.25
2023-02-21T08:36:05.468Z,12.31
2023-02-21T08:38:34.674Z,12.48
2023-02-21T08:41:04.714Z,12.55
2023-02-21T08:43:33.410Z,12.69
2023-02-21T08:46:03.076Z,12.77
2023-02-21T08:48:31.606Z,12.76
2023-02-21T08:51:00.049Z,12.83
2023-02-21T08:53:28.477Z,12.85
2023-02-21T08:55:56.906Z,12.85
2023-02-21T08:58:25.511Z,12.87
2023-02-21T09:00:54.134Z,12.81
2023-02-21T09:03:22.730Z,12.92
2023-02-21T09:05:51.170Z,12.95
2023-02-21T09:08:21.152Z,13.00
2023-02-21T09:10:49.669Z,13.00
2023-02-21T09:13:18.153Z,13.02
2023-02-21T09:15:46.787Z,13.03
2023-02-21T09:18:16.200Z,13.03
2023-02-21T09:20:45.973Z,13.04
2023-02-21T09:23:15.782Z,13.11
2023-02-21T09:25:44.343Z,13.11
2023-02-21T09:28:14.031Z,13.17
2023-02-21T09:30:42.838Z,13.28
2023-02-21T09:33:12.755Z,13.38
2023-02-21T09:35:41.358Z,13.49
2023-02-21T09:38:10.635Z,13.53
2023-02-21T09:41:01.973Z,13.57
2023-02-21T09:43:52.273Z,13.52
2023-02-21T09:46:49.290Z,13.56
2023-02-21T09:49:34.019Z,13.55
2023-02-21T09:52:03.393Z,13.52
2023-02-21T09:54:47.176Z,13.59
2023-02-21T09:57:18.432Z,13.56
2023-02-21T09:59:48.309Z,13.59
2023-02-21T10:02:54.573Z,13.67
2023-02-21T10:05:33.767Z,13.77
2023-02-21T10:08:18.053Z,13.81
2023-02-21T10:10:53.940Z,13.81
2023-02-21T10:13:35.733Z,13.83
2023-02-21T10:16:24.557Z,13.77
2023-02-21T10:19:13.177Z,13.77
2023-02-21T10:21:44.773Z,13.76
2023-02-21T10:24:15.914Z,13.75
2023-02-21T10:26:49.174Z,13.80
2023-02-21T10:29:20.596Z,13.84
2023-02-21T10:31:53.624Z,13.93
2023-02-21T10:34:27.820Z,14.06
2023-02-21T10:36:57.799Z,14.09
2023-02-21T10:39:56.620Z,14.19
2023-02-21T10:42:33.924Z,14.29
2023-02-21T10:45:05.966Z,14.28
2023-02-21T10:47:53.494Z,14.36
2023-02-21T10:50:39.933Z,14.38
2023-02-21T10:53:09.444Z,14.39
2023-02-21T10:55:38.236Z,14.42
2023-02-21T10:58:19.113Z,14.41
2023-02-21T11:00:48.650Z,14.36
2023-02-21T11:03:20.623Z,14.38
2023-02-21T11:05:59.994Z,14.46
2023-02-21T11:08:42.357Z,14.55
2023-02-21T11:11:11.321Z,14.56
2023-02-21T11:13:39.820Z,14.55
2023-02-21T11:16:20.556Z,14.57
2023-02-21T11:19:06.406Z,14.56
2023-02-21T11:21:34.931Z,14.59
2023-02-21T11:24:05.742Z,14.59
2023-02-21T11:26:45.968Z,14.73
2023-02-21T11:29:18.609Z,14.79
2023-02-21T11:31:47.129Z,14.87
2023-02-21T11:34:19.995Z,14.89
2023-02-21T11:36:49.893Z,14.97
2023-02-21T11:39:19.996Z,14.94
2023-02-21T11:41:51.001Z,14.89
2023-02-21T11:44:39.560Z,14.83
2023-02-21T11:47:07.993Z,14.68
2023-02-21T11:49:49.332Z,14.58
2023-02-21T11:52:25.278Z,14.50
2023-02-21T11:54:54.641Z,14.46
2023-02-21T11:57:30.405Z,14.42
2023-02-21T12:00:24.079Z,14.39
2023-02-21T12:03:19.677Z,14.41
2023-02-21T12:06:14.487Z,14.45
2023-02-21T12:08:53.951Z,14.59
2023-02-21T12:11:47.391Z,14.65
2023-02-21T12:15:03.993Z,14.71
2023-02-21T12:17:41.518Z,14.75
2023-02-21T12:20:22.025Z,14.83
2023-02-21T12:23:02.277Z,14.87
2023-02-21T12:25:50.531Z,14.98
2023-02-21T12:28:33.306Z,15.02
2023-02-21T12:31:11.700Z,15.01
2023-02-21T12:34:20.694Z,15.09
2023-02-21T12:37:21.464Z,15.16
2023-02-21T12:40:18.704Z,15.29
2023-02-21T12:43:25.210Z,15.31
2023-02-21T12:46:19.409Z,15.27
2023-02-21T12:48:57.427Z,15.22
2023-02-21T12:51:30.890Z,15.18
2023-02-21T12:54:06.424Z,15.24
2023-02-21T12:57:05.905Z,15.23
2023-02-21T12:59:46.892Z,15.14
2023-02-21T13:02:39.220Z,15.09
2023-02-21T13:05:18.331Z,14.99
2023-02-21T13:07:59.045Z,14.94
2023-02-21T13:10:51.145Z,14.84
2023-02-21T13:13:27.784Z,14.78
2023-02-21T13:15:57.888Z,14.74
2023-02-21T13:18:37.765Z,14.66
2023-02-21T13:21:45.650Z,14.64
2023-02-21T13:24:21.856Z,14.66
2023-02-21T13:27:08.472Z,14.62
2023-02-21T13:29:39.261Z,14.62
2023-02-21T13:32:20.445Z,14.63
2023-02-21T13:35:02.474Z,14.67
2023-02-21T13:37:34.683Z,14.62
2023-02-21T13:40:16.956Z,14.58
2023-02-21T13:42:45.527Z,14.58
2023-02-21T13:45:23.489Z,14.56
2023-02-21T13:47:57.869Z,14.42
2023-02-21T13:50:38.069Z,14.31
2023-02-21T13:53:09.359Z,14.18
2023-02-21T13:55:38.432Z,14.01
2023-02-21T13:58:07.639Z,13.93
2023-02-21T14:00:35.897Z,13.80
2023-02-21T14:03:07.209Z,13.67
2023-02-21T14:05:44.900Z,13.27
2023-02-21T14:08:16.207Z,12.91
2023-02-21T14:10:53.862Z,12.43
2023-02-21T14:13:54.427Z,11.74
2023-02-21T14:16:48.448Z,11.48
2023-02-21T14:19:26.832Z,11.04
2023-02-21T14:22:03.548Z,10.74
2023-02-21T14:24:36.209Z,10.36
2023-02-21T14:27:25.642Z,10.29
2023-02-21T14:30:03.081Z,10.26
2023-02-21T14:32:52.945Z,10.14
2023-02-21T14:35:33.755Z,10.08
2023-02-21T14:38:08.935Z,9.97
2023-02-21T14:41:01.611Z,9.93
2023-02-21T14:43:31.848Z,9.93
2023-02-21T14:46:26.544Z,9.88
2023-02-21T14:49:00.899Z,9.94
2023-02-21T14:51:47.772Z,9.91
2023-02-21T14:54:40.670Z,9.95
2023-02-21T14:57:27.691Z,9.96
2023-02-21T15:00:03.136Z,9.90
2023-02-21T15:02:46.861Z,9.88
2023-02-21T15:05:19.649Z,9.92
2023-02-21T15:07:48.039Z,9.88
2023-02-21T15:10:22.510Z,9.82
2023-02-21T15:13:02.275Z,9.81
2023-02-21T15:15:38.171Z,9.76
2023-02-21T15:18:25.649Z,9.76
2023-02-21T15:21:12.390Z,9.63
2023-02-21T15:23:45.670Z,9.66
2023-02-21T15:26:30.309Z,9.58
2023-02-21T15:29:07.007Z,9.53
2023-02-21T15:31:48.513Z,9.45
2023-02-21T15:34:32.682Z,9.38
2023-02-21T15:37:20.980Z,9.28
2023-02-21T15:40:04.148Z,9.18
2023-02-21T15:42:35.197Z,9.15
2023-02-21T15:45:10.306Z,9.15
2023-02-21T15:47:39.102Z,9.18
2023-02-21T15:50:07.497Z,9.15
2023-02-21T15:52:46.542Z,9.16
2023-02-21T15:55:20.792Z,9.16
2023-02-21T15:58:08.107Z,9.17
2023-02-21T16:00:48.483Z,9.16
2023-02-21T16:03:29.005Z,9.25
2023-02-21T16:06:25.270Z,9.25
2023-02-21T16:09:08.049Z,9.27
2023-02-21T16:11:58.354Z,9.27
2023-02-21T16:14:38.967Z,9.28
2023-02-21T16:17:13.724Z,9.27
2023-02-21T16:19:48.105Z,9.24
2023-02-21T16:22:59.694Z,9.23
2023-02-21T16:25:26.830Z,9.19
2023-02-21T16:28:00.623Z,9.20
2023-02-21T16:30:32.561Z,9.16
2023-02-21T16:33:04.605Z,9.19
2023-02-21T16:35:34.190Z,9.15
2023-02-21T16:38:02.638Z,9.18
2023-02-21T16:40:39.070Z,9.19
2023-02-21T16:43:07.547Z,9.16
2023-02-21T16:45:39.133Z,9.14
2023-02-21T16:48:18.408Z,9.09
2023-02-21T16:50:48.150Z,9.03
2023-02-21T16:53:17.762Z,8.99
2023-02-21T16:55:46.648Z,9.05
2023-02-21T16:58:31.481Z,9.02
2023-02-21T17:01:08.456Z,9.01
2023-02-21T17:03:36.740Z,8.95
2023-02-21T17:06:06.337Z,8.90
2023-02-21T17:08:34.621Z,8.92
2023-02-21T17:11:06.061Z,8.93
2023-02-21T17:13:34.372Z,8.84
2023-02-21T17:16:02.633Z,8.77
2023-02-21T17:18:31.761Z,8.68
2023-02-21T17:21:00.957Z,8.68
2023-02-21T17:23:29.864Z,8.65
2023-02-21T17:25:58.197Z,8.58
2023-02-21T17:28:26.513Z,8.61
2023-02-21T17:30:54.971Z,8.60
2023-02-21T17:33:32.437Z,8.61
2023-02-21T17:36:01.099Z,8.65
2023-02-21T17:38:29.638Z,8.65
2023-02-21T17:40:58.567Z,8.57
2023-02-21T17:43:27.054Z,8.60
2023-02-21T17:45:55.461Z,8.51
2023-02-21T17:48:23.777Z,8.41
2023-02-21T17:50:52.032Z,8.29
2023-02-21T17:53:20.386Z,8.21
2023-02-21T17:55:48.769Z,8.09
2023-02-21T17:58:17.029Z,7.99
2023-02-21T18:00:45.733Z,7.92
2023-02-21T18:03:14.062Z,7.85
2023-02-21T18:05:44.464Z,7.81
2023-02-21T18:08:17.132Z,7.77
2023-02-21T18:10:48.521Z,7.80
2023-02-21T18:13:21.638Z,7.80
2023-02-21T18:15:50.216Z,7.88
2023-02-21T18:18:18.693Z,7.91
2023-02-21T18:20:47.202Z,7.92
2023-02-21T18:23:16.826Z,7.91
2023-02-21T18:25:45.212Z,7.95
2023-02-21T18:28:13.460Z,7.95
2023-02-21T18:30:42.137Z,7.94
2023-02-21T18:33:10.505Z,7.90
2023-02-21T18:35:39.098Z,7.92
2023-02-21T18:38:07.633Z,7.91
2023-02-21T18:40:44.701Z,7.92
2023-02-21T18:43:23.254Z,7.94
2023-02-21T18:45:53.265Z,7.96
2023-02-21T18:48:22.740Z,7.97
2023-02-21T18:50:51.942Z,7.98
2023-02-21T18:53:20.568Z,7.96
2023-02-21T18:55:48.931Z,7.97
2023-02-21T18:58:17.268Z,7.93
2023-02-21T19:00:47.384Z,7.89
2023-02-21T19:03:15.697Z,7.85
2023-02-21T19:05:44.011Z,7.85
2023-02-21T19:08:12.310Z,7.80
2023-02-21T19:10:40.713Z,7.83
2023-02-21T19:13:09.076Z,7.81
2023-02-21T19:15:37.819Z,7.81
2023-02-21T19:18:06.317Z,7.80
2023-02-21T19:20:34.679Z,7.78
2023-02-21T19:23:03.020Z,7.73
2023-02-21T19:25:31.510Z,7.71
2023-02-21T19:28:03.304Z,7.73
2023-02-21T19:30:37.077Z,7.70
2023-02-21T19:33:08.340Z,7.72
2023-02-21T19:35:37.914Z,7.74
2023-02-21T19:38:07.708Z,7.81
2023-02-21T19:40:36.464Z,7.88
2023-02-21T19:43:04.822Z,7.93
2023-02-21T19:45:33.294Z,7.98
2023-02-21T19:48:01.673Z,8.00
2023-02-21T19:50:35.103Z,8.01
2023-02-21T19:53:03.716Z,8.01
2023-02-21T19:55:31.922Z,8.04
2023-02-21T19:58:00.369Z,8.06
2023-02-21T20:00:28.873Z,8.08
2023-02-21T20:02:57.015Z,8.11
2023-02-21T20:05:25.761Z,8.08
2023-02-21T20:07:54.375Z,8.06
2023-02-21T20:10:25.774Z,8.05
2023-02-21T20:12:57.587Z,8.04
2023-02-21T20:15:26.008Z,8.02
2023-02-21T20:17:55.013Z,7.95
2023-02-21T20:20:23.556Z,7.95
2023-02-21T20:22:51.960Z,7.97
2023-02-21T20:25:20.937Z,7.99
2023-02-21T20:27:49.207Z,8.03
2023-02-21T20:30:17.958Z,8.04
2023-02-21T20:32:46.726Z,8.01
2023-02-21T20:35:15.286Z,8.00
2023-02-21T20:37:43.556Z,7.97
2023-02-21T20:40:15.532Z,7.93
2023-02-21T20:42:44.212Z,7.91
2023-02-21T20:45:12.550Z,7.87
2023-02-21T20:47:41.063Z,7.76
2023-02-21T20:50:09.457Z,7.69
2023-02-21T20:52:41.845Z,7.64
2023-02-21T20:55:10.606Z,7.62
2023-02-21T20:57:38.899Z,7.61
2023-02-21T21:00:10.360Z,7.64
2023-02-21T21:02:39.156Z,7.69
2023-02-21T21:05:13.893Z,7.76
2023-02-21T21:07:43.285Z,7.83
2023-02-21T21:10:14.771Z,7.89
2023-02-21T21:12:43.526Z,7.91
2023-02-21T21:15:14.641Z,7.92
2023-02-21T21:17:43.126Z,7.91
2023-02-21T21:20:14.779Z,7.89
2023-02-21T21:22:45.640Z,7.85
2023-02-21T21:25:14.834Z,7.83
2023-02-21T21:27:44.845Z,7.77
2023-02-21T21:30:18.469Z,7.70
2023-02-21T21:32:46.871Z,7.65
2023-02-21T21:35:18.218Z,7.57
2023-02-21T21:37:47.228Z,7.48
2023-02-21T21:40:27.070Z,7.43
2023-02-21T21:42:55.977Z,7.41
2023-02-21T21:45:27.756Z,7.37
2023-02-21T21:48:00.399Z,7.35
2023-02-21T21:50:28.777Z,7.31
2023-02-21T21:52:58.956Z,7.29
2023-02-21T21:55:29.777Z,7.27
2023-02-21T21:57:59.229Z,7.22
2023-02-21T22:00:30.223Z,7.18
2023-02-21T22:03:02.485Z,7.11
2023-02-21T22:05:32.042Z,7.09
2023-02-21T22:08:00.453Z,7.04
2023-02-21T22:10:29.396Z,7.01
2023-02-21T22:13:00.164Z,6.96
2023-02-21T22:15:29.698Z,6.88
2023-02-21T22:18:04.396Z,6.85
2023-02-21T22:20:32.674Z,6.88
2023-02-21T22:23:01.014Z,6.87
2023-02-21T22:25:30.883Z,6.85
2023-02-21T22:28:03.428Z,6.78
2023-02-21T22:30:31.924Z,6.77
2023-02-21T22:33:00.612Z,6.80
2023-02-21T22:35:29.086Z,6.83
2023-02-21T22:38:02.266Z,6.85
2023-02-21T22:40:35.818Z,6.91
2023-02-21T22:43:11.384Z,6.90
2023-02-21T22:45:39.652Z,6.94
2023-02-21T22:48:10.247Z,6.96
2023-02-21T22:50:40.522Z,6.98
2023-02-21T22:53:13.338Z,6.98
2023-02-21T22:55:41.785Z,7.00
2023-02-21T22:58:10.541Z,7.03
2023-02-21T23:00:40.597Z,7.03
2023-02-21T23:03:15.811Z,7.02
2023-02-21T23:05:55.115Z,7.07
2023-02-21T23:08:23.712Z,7.07
2023-02-21T23:10:52.079Z,7.03
2023-02-21T23:13:23.280Z,6.95
2023-02-21T23:15:54.096Z,6.98
2023-02-21T23:18:24.905Z,6.99
2023-02-21T23:20:58.175Z,7.01
2023-02-21T23:23:28.452Z,7.06
2023-02-21T23:26:01.296Z,7.13
2023-02-21T23:28:30.912Z,7.20
2023-02-21T23:30:59.478Z,7.28
2023-02-21T23:33:30.104Z,7.33
2023-02-21T23:35:58.440Z,7.35
2023-02-21T23:38:30.757Z,7.35
2023-02-21T23:40:59.939Z,7.36
2023-02-21T23:43:30.666Z,7.35
2023-02-21T23:46:00.444Z,7.33
2023-02-21T23:48:29.827Z,7.29
2023-02-21T23:50:58.464Z,7.27
2023-02-21T23:53:28.768Z,7.26
2023-02-21T23:55:58.146Z,7.25
2023-02-21T23:58:29.885Z,7.22
